createdAt,value
2023-03-27T00:02:26.339Z,8.54
2023-03-27T00:04:59.413Z,8.54
2023-03-27T00:07:32.125Z,8.56
2023-03-27T00:10:05.073Z,8.58
2023-03-27T00:12:37.576Z,8.59
2023-03-27T00:15:15.924Z,8.58
2023-03-27T00:17:51.935Z,8.60
2023-03-27T00:20:27.583Z,8.63
2023-03-27T00:23:00.873Z,8.66
2023-03-27T00:25:35.217Z,8.64
2023-03-27T00:28:08.498Z,8.58
2023-03-27T00:30:41.409Z,8.61
2023-03-27T00:33:15.553Z,8.71
2023-03-27T00:35:51.087Z,8.73
2023-03-27T00:38:24.584Z,8.77
2023-03-27T00:40:57.656Z,8.76
2023-03-27T00:43:34.129Z,8.78
2023-03-27T00:46:31.756Z,8.84
2023-03-27T00:49:08.856Z,8.85
2023-03-27T00:51:43.508Z,8.88
2023-03-27T00:54:22.231Z,8.83
2023-03-27T00:56:56.693Z,8.76
2023-03-27T00:59:32.381Z,8.74
2023-03-27T01:02:06.104Z,8.72
2023-03-27T01:04:42.624Z,8.71
2023-03-27T01:07:16.156Z,8.56
2023-03-27T01:09:48.852Z,8.70
2023-03-27T01:12:35.845Z,8.72
2023-03-27T01:15:25.560Z,8.72
2023-03-27T01:18:08.354Z,8.71
2023-03-27T01:21:17.956Z,8.65
2023-03-27T01:24:15.679Z,8.56
2023-03-27T01:27:16.343Z,8.64
2023-03-27T01:30:05.463Z,8.67
2023-03-27T01:33:10.740Z,8.73
2023-03-27T01:36:21.024Z,8.73
2023-03-27T01:39:22.967Z,8.65
2023-03-27T01:42:00.785Z,8.64
2023-03-27T01:44:43.636Z,8.63
2023-03-27T01:47:27.898Z,8.61
2023-03-27T01:50:09.681Z,8.63
2023-03-27T01:52:48.978Z,8.61
2023-03-27T01:55:26.322Z,8.51
2023-03-27T01:58:06.422Z,8.60
2023-03-27T02:00:52.612Z,8.60
2023-03-27T02:03:29.637Z,8.52
2023-03-27T02:06:07.797Z,8.50
2023-03-27T02:08:46.757Z,8.35
2023-03-27T02:11:31.261Z,8.45
2023-03-27T02:14:06.864Z,8.26
2023-03-27T02:16:46.271Z,8.30
2023-03-27T02:19:24.742Z,8.24
2023-03-27T02:21:57.168Z,8.06
2023-03-27T02:24:30.777Z,7.96
2023-03-27T02:27:15.778Z,7.94
2023-03-27T02:30:00.802Z,7.86
2023-03-27T02:32:43.666Z,7.85
2023-03-27T02:35:27.437Z,7.62
2023-03-27T02:38:11.771Z,7.68
2023-03-27T02:40:56.086Z,7.68
2023-03-27T02:44:04.965Z,7.71
2023-03-27T02:46:57.230Z,7.74
2023-03-27T02:49:35.189Z,7.71
2023-03-27T02:52:12.975Z,7.71
2023-03-27T02:54:52.359Z,7.72
2023-03-27T02:57:31.913Z,7.69
2023-03-27T03:00:28.140Z,7.67
2023-03-27T03:03:32.740Z,7.66
2023-03-27T03:06:14.294Z,7.59
2023-03-27T03:08:47.854Z,7.61
2023-03-27T03:11:23.018Z,7.59
2023-03-27T03:13:54.235Z,7.63
2023-03-27T03:16:27.196Z,7.51
2023-03-27T03:18:59.749Z,7.44
2023-03-27T03:21:32.881Z,7.45
2023-03-27T03:24:05.671Z,7.52
2023-03-27T03:26:40.120Z,7.43
2023-03-27T03:29:14.299Z,7.35
2023-03-27T03:31:49.750Z,7.24
2023-03-27T03:34:22.579Z,7.12
2023-03-27T03:36:55.826Z,7.02
2023-03-27T03:39:34.591Z,7.04
2023-03-27T03:42:07.624Z,6.99
2023-03-27T03:44:40.133Z,7.09
2023-03-27T03:47:22.700Z,7.11
2023-03-27T03:49:56.048Z,7.04
2023-03-27T03:52:28.628Z,6.95
2023-03-27T03:55:01.078Z,6.96
2023-03-27T03:57:34.372Z,6.88
2023-03-27T04:00:18.883Z,6.87
2023-03-27T04:02:55.748Z,6.70
2023-03-27T04:05:28.532Z,6.73
2023-03-27T04:08:02.787Z,6.76
2023-03-27T04:10:56.763Z,6.84
2023-03-27T04:13:46.606Z,6.78
2023-03-27T04:16:28.958Z,6.77
2023-03-27T04:19:03.560Z,6.89
2023-03-27T04:21:37.668Z,6.91
2023-03-27T04:24:14.191Z,6.87
2023-03-27T04:26:49.966Z,6.79
2023-03-27T04:29:32.078Z,6.67
2023-03-27T04:32:05.782Z,6.59
2023-03-27T04:34:48.345Z,6.64
2023-03-27T04:37:43.593Z,6.64
2023-03-27T04:40:21.329Z,6.66
2023-03-27T04:43:01.527Z,6.71
2023-03-27T04:45:35.016Z,6.73
2023-03-27T04:48:10.358Z,6.62
2023-03-27T04:50:44.221Z,6.73
2023-03-27T04:53:18.453Z,6.73
2023-03-27T04:55:53.677Z,6.68
2023-03-27T04:58:26.640Z,6.69
2023-03-27T05:01:00.055Z,6.72
2023-03-27T05:04:11.380Z,6.62
2023-03-27T05:06:52.742Z,6.59
2023-03-27T05:09:27.583Z,6.66
2023-03-27T05:12:00.205Z,6.59
2023-03-27T05:14:32.857Z,6.51
2023-03-27T05:17:09.542Z,6.59
2023-03-27T05:19:45.668Z,6.43
2023-03-27T05:22:18.948Z,6.39
2023-03-27T05:24:57.064Z,6.36
2023-03-27T05:27:32.702Z,6.35
2023-03-27T05:30:06.579Z,6.32
2023-03-27T05:32:39.793Z,6.30
2023-03-27T05:35:25.905Z,6.39
2023-03-27T05:37:59.634Z,6.27
2023-03-27T05:40:39.670Z,6.27
2023-03-27T05:43:13.186Z,6.29
2023-03-27T05:45:46.085Z,6.34
2023-03-27T05:48:18.649Z,6.36
2023-03-27T05:50:54.473Z,6.44
2023-03-27T05:53:29.123Z,6.53
2023-03-27T05:56:21.548Z,6.40
2023-03-27T05:59:02.563Z,6.48
2023-03-27T06:01:36.635Z,6.55
2023-03-27T06:04:11.167Z,6.59
2023-03-27T06:07:03.240Z,6.53
2023-03-27T06:09:36.490Z,6.58
2023-03-27T06:12:28.131Z,6.54
2023-03-27T06:15:09.439Z,6.52
2023-03-27T06:17:53.336Z,6.62
2023-03-27T06:20:27.770Z,6.61
2023-03-27T06:23:01.674Z,6.62
2023-03-27T06:25:39.105Z,6.72
2023-03-27T06:28:13.578Z,6.78
2023-03-27T06:30:50.501Z,6.77
2023-03-27T06:33:42.053Z,6.62
2023-03-27T06:36:23.450Z,6.69
2023-03-27T06:38:56.961Z,6.61
2023-03-27T06:41:29.502Z,6.79
2023-03-27T06:44:18.768Z,6.77
2023-03-27T06:46:59.606Z,6.73
2023-03-27T06:49:39.385Z,6.56
2023-03-27T06:52:17.914Z,6.63
2023-03-27T06:54:50.712Z,6.61
2023-03-27T06:57:23.351Z,6.64
2023-03-27T07:00:02.260Z,6.51
2023-03-27T07:02:59.439Z,6.36
2023-03-27T07:05:50.707Z,6.31
2023-03-27T07:08:25.616Z,6.41
2023-03-27T07:13:42.576Z,6.42
2023-03-27T07:16:20.456Z,6.44
2023-03-27T07:18:53.150Z,6.44
2023-03-27T07:21:25.853Z,6.45
2023-03-27T07:23:58.540Z,6.22
2023-03-27T07:26:37.466Z,6.23
2023-03-27T07:29:19.414Z,6.40
2023-03-27T07:31:58.457Z,6.49
2023-03-27T07:34:58.124Z,6.47
2023-03-27T07:37:31.135Z,6.53
2023-03-27T07:40:36.805Z,6.58
2023-03-27T07:43:47.210Z,6.70
2023-03-27T07:46:19.791Z,6.64
2023-03-27T07:48:52.336Z,6.55
2023-03-27T07:51:28.011Z,6.49
2023-03-27T07:54:04.457Z,6.53
2023-03-27T07:56:43.175Z,6.48
2023-03-27T07:59:34.660Z,6.69
2023-03-27T08:02:16.091Z,6.70
2023-03-27T08:04:47.659Z,6.35
2023-03-27T08:07:22.887Z,6.37
2023-03-27T08:09:57.593Z,6.26
2023-03-27T08:12:30.806Z,6.27
2023-03-27T08:15:06.801Z,6.35
2023-03-27T08:17:39.492Z,6.40
2023-03-27T08:20:15.449Z,6.39
2023-03-27T08:22:51.534Z,6.29
2023-03-27T08:25:36.662Z,6.27
2023-03-27T08:28:12.011Z,6.39
2023-03-27T08:30:46.361Z,6.34
2023-03-27T08:33:20.408Z,6.38
2023-03-27T08:35:53.636Z,6.55
2023-03-27T08:38:29.590Z,6.73
2023-03-27T08:41:31.116Z,6.80
2023-03-27T08:44:18.895Z,6.89
2023-03-27T08:46:57.203Z,7.02
2023-03-27T08:49:33.226Z,7.13
2023-03-27T08:52:21.372Z,7.09
2023-03-27T08:54:59.481Z,7.14
2023-03-27T08:57:41.711Z,7.27
2023-03-27T09:00:25.187Z,7.27
2023-03-27T09:03:12.203Z,7.25
2023-03-27T09:05:49.121Z,7.34
2023-03-27T09:08:35.077Z,7.56
2023-03-27T09:11:20.592Z,7.63
2023-03-27T09:14:08.350Z,7.42
2023-03-27T09:16:49.563Z,7.44
2023-03-27T09:19:43.372Z,7.28
2023-03-27T09:22:22.473Z,7.08
2023-03-27T09:25:16.974Z,7.11
2023-03-27T09:28:22.769Z,7.29
2023-03-27T09:31:24.799Z,7.43
2023-03-27T09:33:59.953Z,7.53
2023-03-27T09:36:32.703Z,7.59
2023-03-27T09:39:09.671Z,7.45
2023-03-27T09:41:46.186Z,7.59
2023-03-27T09:44:25.429Z,7.56
2023-03-27T09:47:04.499Z,7.48
2023-03-27T09:49:39.685Z,7.41
2023-03-27T09:52:37.774Z,7.49
2023-03-27T09:55:30.159Z,7.55
2023-03-27T09:58:14.374Z,7.54
2023-03-27T10:00:48.465Z,7.31
2023-03-27T10:03:23.105Z,7.11
2023-03-27T10:06:11.702Z,7.12
2023-03-27T10:09:02.263Z,7.15
2023-03-27T10:11:40.161Z,7.36
2023-03-27T10:14:22.131Z,7.51
2023-03-27T10:16:55.147Z,7.47
2023-03-27T10:19:32.097Z,7.60
2023-03-27T10:22:14.156Z,7.60
2023-03-27T10:24:49.778Z,7.76
2023-03-27T10:27:32.474Z,7.81
2023-03-27T10:30:33.449Z,7.68
2023-03-27T10:33:37.192Z,7.52
2023-03-27T10:36:40.664Z,7.37
2023-03-27T10:39:18.996Z,7.41
2023-03-27T10:42:17.504Z,7.40
2023-03-27T10:44:56.334Z,7.55
2023-03-27T10:47:33.059Z,7.49
2023-03-27T10:50:14.638Z,7.35
2023-03-27T10:52:58.521Z,7.41
2023-03-27T10:55:51.780Z,7.61
2023-03-27T10:58:32.849Z,7.90
2023-03-27T11:01:13.028Z,7.81
2023-03-27T11:03:56.612Z,7.86
2023-03-27T11:06:34.197Z,7.78
2023-03-27T11:09:16.180Z,7.91
2023-03-27T11:12:04.380Z,7.70
2023-03-27T11:14:55.490Z,7.58
2023-03-27T11:17:34.415Z,7.37
2023-03-27T11:20:33.417Z,7.32
2023-03-27T11:23:15.260Z,7.20
2023-03-27T11:26:16.334Z,7.20
2023-03-27T11:28:57.670Z,7.17
2023-03-27T11:31:40.100Z,7.30
2023-03-27T11:34:28.847Z,7.36
2023-03-27T11:37:13.002Z,7.36
2023-03-27T11:39:54.092Z,7.40
2023-03-27T11:42:29.033Z,7.42
2023-03-27T11:45:04.655Z,7.40
2023-03-27T11:47:54.358Z,7.33
2023-03-27T11:50:35.047Z,7.12
2023-03-27T11:53:29.406Z,7.00
2023-03-27T11:56:43.850Z,6.84
2023-03-27T11:59:42.597Z,6.90
2023-03-27T12:02:31.626Z,7.05
2023-03-27T12:05:18.778Z,7.17
2023-03-27T12:08:03.340Z,7.26
2023-03-27T12:10:40.847Z,7.41
2023-03-27T12:13:58.289Z,7.41
2023-03-27T12:16:59.300Z,7.58
2023-03-27T12:19:50.288Z,7.47
2023-03-27T12:22:40.331Z,7.52
2023-03-27T12:25:22.912Z,7.80
2023-03-27T12:28:27.398Z,7.77
2023-03-27T12:31:19.976Z,8.08
2023-03-27T12:34:02.234Z,8.10
2023-03-27T12:36:38.922Z,7.76
2023-03-27T12:39:22.350Z,7.59
2023-03-27T12:41:55.316Z,7.45
2023-03-27T12:45:15.033Z,7.61
2023-03-27T12:48:20.398Z,7.61
2023-03-27T12:51:01.313Z,7.54
2023-03-27T12:53:59.373Z,7.28
2023-03-27T12:56:38.379Z,7.43
2023-03-27T12:59:23.511Z,7.67
2023-03-27T13:02:12.905Z,7.92
2023-03-27T13:05:10.739Z,8.25
2023-03-27T13:07:54.575Z,8.24
2023-03-27T13:10:51.876Z,8.62
2023-03-27T13:13:30.596Z,8.82
2023-03-27T13:16:14.092Z,8.84
2023-03-27T13:18:59.985Z,8.84
2023-03-27T13:21:36.761Z,8.71
2023-03-27T13:24:18.211Z,8.63
2023-03-27T13:26:59.251Z,8.54
2023-03-27T13:29:34.091Z,8.26
2023-03-27T13:32:24.758Z,8.09
2023-03-27T13:35:22.269Z,7.88
2023-03-27T13:38:00.915Z,8.03
2023-03-27T13:40:53.445Z,8.18
2023-03-27T13:43:28.586Z,8.29
2023-03-27T13:46:19.200Z,8.40
2023-03-27T13:49:30.826Z,8.48
2023-03-27T13:52:18.720Z,8.49
2023-03-27T13:54:55.748Z,8.67
2023-03-27T13:57:38.364Z,8.84
2023-03-27T14:00:27.257Z,8.76
2023-03-27T14:03:20.316Z,8.72
2023-03-27T14:06:06.165Z,8.89
2023-03-27T14:08:44.146Z,9.05
2023-03-27T14:11:40.223Z,9.04
2023-03-27T14:14:31.575Z,9.14
2023-03-27T14:17:19.339Z,9.26
2023-03-27T14:20:06.623Z,9.28
2023-03-27T14:22:42.616Z,9.21
2023-03-27T14:25:15.746Z,9.18
2023-03-27T14:27:54.130Z,9.14
2023-03-27T14:30:27.411Z,9.02
2023-03-27T14:33:11.005Z,8.92
2023-03-27T14:35:44.762Z,8.75
2023-03-27T14:38:25.007Z,8.70
2023-03-27T14:40:59.673Z,8.61
2023-03-27T14:43:49.180Z,8.64
2023-03-27T14:46:21.522Z,8.56
2023-03-27T14:48:54.539Z,8.37
2023-03-27T14:51:35.061Z,8.35
2023-03-27T14:54:08.302Z,8.44
2023-03-27T14:56:51.828Z,8.54
2023-03-27T14:59:40.842Z,8.54
2023-03-27T15:02:18.525Z,8.49
2023-03-27T15:04:50.269Z,8.32
2023-03-27T15:07:22.369Z,8.27
2023-03-27T15:10:12.505Z,8.18
2023-03-27T15:13:02.206Z,8.18
2023-03-27T15:15:39.024Z,8.13
2023-03-27T15:18:13.354Z,8.11
2023-03-27T15:20:44.982Z,7.92
2023-03-27T15:23:20.420Z,7.89
2023-03-27T15:25:56.210Z,7.98
2023-03-27T15:28:30.806Z,8.06
2023-03-27T15:31:03.418Z,8.17
2023-03-27T15:33:37.937Z,8.40
2023-03-27T15:36:16.799Z,8.48
2023-03-27T15:38:48.216Z,8.43
2023-03-27T15:41:50.558Z,8.57
2023-03-27T15:44:23.980Z,8.74
2023-03-27T15:46:57.124Z,8.84
2023-03-27T15:49:29.834Z,9.04
2023-03-27T15:52:01.805Z,8.98
2023-03-27T15:54:34.474Z,8.97
2023-03-27T15:57:10.657Z,9.05
2023-03-27T15:59:51.856Z,9.00
2023-03-27T16:02:28.436Z,9.04
2023-03-27T16:05:00.155Z,9.02
2023-03-27T16:07:35.297Z,8.86
2023-03-27T16:10:07.757Z,8.73
2023-03-27T16:12:51.003Z,8.75
2023-03-27T16:15:38.404Z,8.51
2023-03-27T16:18:17.728Z,8.41
2023-03-27T16:20:49.324Z,8.28
2023-03-27T16:23:20.614Z,8.28
2023-03-27T16:25:51.925Z,8.18
2023-03-27T16:28:22.990Z,8.13
2023-03-27T16:30:54.628Z,8.21
2023-03-27T16:33:27.511Z,8.14
2023-03-27T16:35:58.980Z,8.16
2023-03-27T16:38:31.725Z,8.10
2023-03-27T16:41:02.918Z,8.08
2023-03-27T16:43:33.824Z,8.13
2023-03-27T16:46:05.228Z,8.06
2023-03-27T16:48:35.976Z,7.98
2023-03-27T16:51:07.182Z,7.99
2023-03-27T16:53:38.316Z,8.01
2023-03-27T16:56:09.765Z,8.01
2023-03-27T16:58:41.065Z,7.96
2023-03-27T17:01:12.685Z,7.96
2023-03-27T17:03:43.805Z,7.88
2023-03-27T17:06:17.722Z,7.79
2023-03-27T17:08:52.573Z,7.74
2023-03-27T17:11:23.999Z,7.61
2023-03-27T17:13:55.402Z,7.54
2023-03-27T17:16:26.649Z,7.51
2023-03-27T17:18:57.692Z,7.51
2023-03-27T17:21:29.043Z,7.58
2023-03-27T17:24:01.038Z,7.59
2023-03-27T17:26:34.374Z,7.57
2023-03-27T17:29:06.919Z,7.42
2023-03-27T17:31:38.528Z,7.48
2023-03-27T17:34:09.668Z,7.45
2023-03-27T17:36:47.107Z,7.39
2023-03-27T17:39:20.823Z,7.39
2023-03-27T17:41:52.113Z,7.38
2023-03-27T17:44:23.142Z,7.35
2023-03-27T17:46:54.372Z,7.33
2023-03-27T17:49:25.195Z,7.22
2023-03-27T17:51:56.380Z,7.19
2023-03-27T17:54:27.299Z,7.10
2023-03-27T17:56:58.342Z,7.09
2023-03-27T17:59:30.533Z,7.09
2023-03-27T18:02:02.126Z,7.11
2023-03-27T18:04:33.422Z,7.13
2023-03-27T18:07:04.354Z,7.06
2023-03-27T18:09:37.159Z,7.07
2023-03-27T18:12:08.294Z,7.01
2023-03-27T18:14:39.338Z,7.02
2023-03-27T18:17:10.903Z,7.02
2023-03-27T18:19:41.895Z,7.02
2023-03-27T18:22:14.514Z,6.99
2023-03-27T18:26:56.271Z,6.98
2023-03-27T18:29:27.335Z,6.79
2023-03-27T18:31:58.856Z,6.80
2023-03-27T18:34:30.403Z,6.86
2023-03-27T18:37:01.804Z,6.83
2023-03-27T18:39:35.420Z,6.79
2023-03-27T18:42:07.025Z,6.77
2023-03-27T18:44:41.505Z,6.65
2023-03-27T18:47:12.942Z,6.72
2023-03-27T18:49:44.627Z,6.70
2023-03-27T18:52:15.591Z,6.65
2023-03-27T18:54:47.011Z,6.54
2023-03-27T18:57:19.989Z,6.50
2023-03-27T18:59:51.431Z,6.41
2023-03-27T19:02:22.810Z,6.39
2023-03-27T19:04:54.661Z,6.35
2023-03-27T19:07:26.364Z,6.33
2023-03-27T19:09:58.014Z,6.35
2023-03-27T19:12:29.028Z,6.32
2023-03-27T19:15:20.478Z,6.29
2023-03-27T19:17:51.841Z,6.28
2023-03-27T19:20:46.791Z,6.20
2023-03-27T19:23:46.782Z,6.13
2023-03-27T19:26:19.838Z,6.04
2023-03-27T19:28:51.468Z,5.99
2023-03-27T19:31:22.891Z,5.92
2023-03-27T19:33:54.134Z,5.86
2023-03-27T19:36:25.840Z,5.82
2023-03-27T19:38:57.187Z,5.77
2023-03-27T19:41:29.528Z,5.74
2023-03-27T19:44:00.835Z,5.68
2023-03-27T19:46:32.404Z,5.63
2023-03-27T19:49:04.249Z,5.60
2023-03-27T19:52:05.104Z,5.57
2023-03-27T19:54:36.013Z,5.52
2023-03-27T19:57:07.393Z,5.49
2023-03-27T19:59:38.969Z,5.43
2023-03-27T20:02:11.091Z,5.41
2023-03-27T20:04:42.376Z,5.36
2023-03-27T20:07:14.070Z,5.28
2023-03-27T20:09:45.572Z,5.24
2023-03-27T20:12:19.881Z,5.15
2023-03-27T20:15:02.279Z,5.18
2023-03-27T20:17:38.934Z,5.21
2023-03-27T20:20:12.574Z,5.05
2023-03-27T20:22:56.411Z,5.17
2023-03-27T20:25:33.720Z,5.11
2023-03-27T20:28:06.262Z,5.08
2023-03-27T20:30:38.255Z,5.07
2023-03-27T20:33:09.906Z,5.05
2023-03-27T20:35:42.152Z,5.00
2023-03-27T20:38:13.987Z,4.98
2023-03-27T20:43:22.909Z,4.97
2023-03-27T20:45:58.876Z,4.83
2023-03-27T20:48:40.575Z,4.93
2023-03-27T20:51:14.946Z,4.93
2023-03-27T20:53:54.084Z,4.91
2023-03-27T20:56:25.716Z,4.89
2023-03-27T20:58:58.120Z,4.96
2023-03-27T21:01:29.731Z,4.98
2023-03-27T21:04:02.339Z,4.93
2023-03-27T21:06:33.748Z,4.77
2023-03-27T21:09:05.216Z,4.70
2023-03-27T21:11:37.206Z,4.75
2023-03-27T21:14:08.445Z,4.82
2023-03-27T21:16:39.720Z,4.72
2023-03-27T21:19:12.284Z,4.63
2023-03-27T21:21:43.536Z,4.87
2023-03-27T21:24:14.868Z,4.92
2023-03-27T21:26:45.857Z,4.74
2023-03-27T21:29:17.120Z,4.77
2023-03-27T21:31:48.708Z,4.88
2023-03-27T21:34:19.566Z,4.90
2023-03-27T21:36:51.037Z,4.97
2023-03-27T21:39:22.781Z,4.98
2023-03-27T21:41:53.797Z,4.99
2023-03-27T21:44:24.841Z,4.95
2023-03-27T21:46:56.361Z,4.78
2023-03-27T21:49:27.529Z,4.60
2023-03-27T21:51:58.585Z,4.83
2023-03-27T21:54:30.187Z,4.76
2023-03-27T21:57:01.421Z,4.53
2023-03-27T21:59:32.680Z,4.43
2023-03-27T22:02:03.946Z,4.36
2023-03-27T22:04:35.562Z,4.59
2023-03-27T22:07:06.605Z,4.33
2023-03-27T22:09:38.476Z,4.27
2023-03-27T22:12:10.186Z,4.43
2023-03-27T22:14:41.441Z,4.43
2023-03-27T22:17:13.131Z,4.51
2023-03-27T22:19:44.067Z,4.46
2023-03-27T22:22:15.334Z,4.48
2023-03-27T22:24:46.646Z,4.38
2023-03-27T22:27:17.673Z,4.32
2023-03-27T22:29:48.960Z,4.21
2023-03-27T22:32:20.905Z,4.41
2023-03-27T22:34:52.197Z,4.37
2023-03-27T22:37:24.804Z,4.44
2023-03-27T22:39:58.600Z,4.21
2023-03-27T22:42:31.676Z,4.16
2023-03-27T22:45:03.340Z,4.48
2023-03-27T22:47:35.631Z,4.31
2023-03-27T22:50:07.752Z,4.40
2023-03-27T22:52:39.182Z,4.38
2023-03-27T22:55:11.324Z,4.38
2023-03-27T22:57:42.942Z,4.48
2023-03-27T23:00:15.339Z,4.69
2023-03-27T23:02:46.687Z,4.65
2023-03-27T23:05:18.252Z,4.52
2023-03-27T23:07:49.481Z,4.59
2023-03-27T23:10:21.276Z,4.31
2023-03-27T23:12:52.334Z,4.11
2023-03-27T23:15:29.665Z,4.07
2023-03-27T23:18:01.738Z,4.27
2023-03-27T23:20:33.119Z,4.42
2023-03-27T23:23:04.629Z,4.61
2023-03-27T23:25:35.705Z,4.81
2023-03-27T23:28:07.394Z,4.76
2023-03-27T23:30:40.014Z,5.03
2023-03-27T23:33:11.126Z,5.09
2023-03-27T23:35:42.630Z,4.87
2023-03-27T23:38:13.982Z,4.49
2023-03-27T23:40:45.681Z,4.18
2023-03-27T23:43:17.066Z,3.77
2023-03-27T23:45:48.531Z,3.64
2023-03-27T23:48:19.494Z,4.25
2023-03-27T23:50:51.990Z,4.13
2023-03-27T23:53:25.669Z,3.94
2023-03-27T23:55:57.427Z,4.23
2023-03-27T23:58:32.385Z,4.44
